Timashevsk, Russia
Current Conditions -  °F | °C
As of 10:00 AM on Friday 19 Dec 2014 (Local Time) from URKK Reporting Station
Broken Clouds Broken Clouds  
Wind Chill: 44°   Ceiling: 4000
Heat Index: 48°   Visibility: 6mi
Dew Point: 46°   Wind: 9mph
Humidity: 93%   Direction: 190°S
Pressure: 30.06"   Gusts: NA
Location:  45.61°N, 38.94°E
Report Text: URKK 190700Z 19004MPS 9999 SCT032CB BKN040 09/08 Q1018 NOSIGRMK QFE760 SC060
Loading
Personal Weather Stations






























Interactive Weather Map New forecast layout! Learn more

10-Day Weather Forecast

Advertisements
Track Severe Weather on mobile